Parkland, Pennsylvania
Current Conditions -  °F | °C
As of 10:54 AM on Tuesday 27 Jan 2015 (Local Time) from KPNE Reporting Station
Light Snow Light Snow  
Wind Chill: 15°   Ceiling: 2600
Heat Index: 27°   Visibility: 1.5mi
Dew Point: 18°   Wind: 16mph
Humidity: 69%   Direction: 330°NNW
Pressure: 29.76"   Gusts: NA
Location:  40.1816°N, 74.9144°W
Report Text: KPNE 271554Z AUTO 33014KT 1 1/2SM -SN BKN026 OVC033 M03/M08 A2976 RMK AO2 SLP080 P0000 T10281078 TSNO
Loading
Personal Weather Stations






























Interactive Weather Map New forecast layout! Learn more

10-Day Weather Forecast

Advertisements
Track Severe Weather on mobile